Columbia, SC (29201)

2:59 PM EST on March 04, 2015 (GMT -0500)
Near Downtown | Change Station
CLOSE
Current Station
Personal Weather Station
Location: Columbia, SC
Elevation: 260 ft
Nearby Weather Stations

Elev 260 ft 34.02 °N, 81.07 °W | Updated 24 minutes ago

Partly Cloudy
Partly Cloudy
79.2 °F
Feels Like 80 °F
N
2.0
Wind Variable Wind from SE
Gusts 11.0 mph

Today
High -- | Low -- °F
--% Chance of Precip.
Yesterday
High -- | Low -- °F
Precip. -- in
6:49 AM 6:22 PM
Waxing Gibbous, 99% visible
Pressure 29.97 in
Visibility 10.0 miles
Clouds Few 6000 ft
Heat Index 80 °F
Dew Point 61 °F
Humidity 54%
Rainfall -999.00 in
Snow Depth Not available.
UV 4 out of 12
Pollen 10.30 out of 12
Air Quality Not available.
Flu Activity Not available.
METAR KCUB 041953Z AUTO 24014G25KT 10SM FEW060 27/13 A2997 RMK AO2 PK WND 23031/1856 SLP147 T02720128

More Conditions Fewer Conditions

Pressure 29.97 in
Visibility 10.0 miles
Clouds Few 6000 ft
Heat Index 80 °F
Dew Point 61 °F
Humidity 54%
Rainfall -999.00 in
Snow Depth Not available.
UV 4 out of 12
Pollen 10.30 out of 12
Air Quality Not available.
Flu Activity Not available.
METAR KCUB 041953Z AUTO 24014G25KT 10SM FEW060 27/13 A2997 RMK AO2 PK WND 23031/1856 SLP147 T02720128

More Conditions Fewer Conditions

10-Day Weather Forecast

Almanac

Astronomy

Mar. 04, 2015 Rise Set
Actual Time
Civil Twilight
Nautical Twilight
Astronomical Twilight
Moon
Length of Visible Light
Length of Day
Tomorrow will be .
, % of the Moon is Illuminated

Today's Extremes

State Highs State Lows

Community

WunderPhotos

Upload Photos

1,802,561 photos uploaded!

WunderBlogs® & News

Nearby

Air Quality

  Air Quality AQ Index Pollutant
Not available.

Snow Depth

Station Depth Elevation

Earthquake Activity

City Distance Mag. Time & Date
Minimum magnitude displayed is 2.5.

Coastal Water Temperatures

Place Temperature

Nearby Weather Stations